Terminal Aerodrome Forecast
Issued by NWS

Home | Current Version | Previous Version | Text Only | Print | Product List | Glossary On
Versions: 1 2 3 4 5 6 7 8 9 10 11 12 13 14 15 16 17 18 19 20 21 22 23 24 25 26 27 28 29 30 31 32 33 34 35 36 37 38 39 40 41
898
FTUS45 KSLC 181721
TAFEVW
TAF
KEVW 181721Z 1818/1918 23035G45KT P6SM VCSH SCT020 BKN040
     FM181900 24043G45KT 2SM -SHSN BR SCT005 BKN020
     FM182000 25027G37KT 3/4SM -SN BLSN BKN005 OVC020
     FM190000 28011KT 2SM -SHSN BR SCT005 BKN015=

USA.gov is the U.S. government's official web portal to all federal, state and local government web resources and services.